sensor_id;sensor_type;location;lat;lon;timestamp;P1;durP1;ratioP1;P2;durP2;ratioP2
73599;SDS011;61877;48.246;9.220;2023-08-06T00:00:54;7.87;;;3.50;;
73599;SDS011;61877;48.246;9.220;2023-08-06T00:03:21;7.33;;;3.13;;
73599;SDS011;61877;48.246;9.220;2023-08-06T00:05:47;6.93;;;3.10;;
73599;SDS011;61877;48.246;9.220;2023-08-06T00:08:12;7.53;;;3.50;;
73599;SDS011;61877;48.246;9.220;2023-08-06T00:10:39;7.72;;;3.03;;
73599;SDS011;61877;48.246;9.220;2023-08-06T00:13:04;7.57;;;3.20;;
73599;SDS011;61877;48.246;9.220;2023-08-06T00:15:29;8.07;;;3.40;;
73599;SDS011;61877;48.246;9.220;2023-08-06T00:17:55;7.60;;;3.53;;
73599;SDS011;61877;48.246;9.220;2023-08-06T00:20:21;7.50;;;3.70;;
73599;SDS011;61877;48.246;9.220;2023-08-06T00:22:47;8.25;;;3.45;;
73599;SDS011;61877;48.246;9.220;2023-08-06T00:25:12;7.70;;;3.70;;
73599;SDS011;61877;48.246;9.220;2023-08-06T00:27:38;9.50;;;3.40;;
73599;SDS011;61877;48.246;9.220;2023-08-06T00:30:03;8.15;;;3.30;;
73599;SDS011;61877;48.246;9.220;2023-08-06T00:32:29;7.97;;;3.40;;
73599;SDS011;61877;48.246;9.220;2023-08-06T00:34:55;10.33;;;3.53;;
73599;SDS011;61877;48.246;9.220;2023-08-06T00:37:21;8.53;;;3.37;;
73599;SDS011;61877;48.246;9.220;2023-08-06T00:39:47;7.93;;;3.72;;
73599;SDS011;61877;48.246;9.220;2023-08-06T00:42:12;9.80;;;3.30;;
73599;SDS011;61877;48.246;9.220;2023-08-06T00:44:37;8.57;;;3.30;;
73599;SDS011;61877;48.246;9.220;2023-08-06T00:47:03;7.30;;;2.90;;
73599;SDS011;61877;48.246;9.220;2023-08-06T00:49:29;7.37;;;2.90;;
73599;SDS011;61877;48.246;9.220;2023-08-06T00:51:55;7.57;;;3.08;;
73599;SDS011;61877;48.246;9.220;2023-08-06T00:54:23;8.18;;;3.40;;
73599;SDS011;61877;48.246;9.220;2023-08-06T00:56:48;9.40;;;3.25;;
73599;SDS011;61877;48.246;9.220;2023-08-06T00:59:14;7.00;;;3.10;;
73599;SDS011;61877;48.246;9.220;2023-08-06T01:01:39;7.53;;;3.40;;
73599;SDS011;61877;48.246;9.220;2023-08-06T01:04:05;8.40;;;2.87;;
73599;SDS011;61877;48.246;9.220;2023-08-06T01:06:33;6.83;;;2.93;;
73599;SDS011;61877;48.246;9.220;2023-08-06T01:09:14;8.20;;;2.90;;
73599;SDS011;61877;48.246;9.220;2023-08-06T01:11:54;7.65;;;3.20;;
73599;SDS011;61877;48.246;9.220;2023-08-06T01:14:30;6.93;;;3.10;;
73599;SDS011;61877;48.246;9.220;2023-08-06T01:17:02;7.70;;;3.53;;
73599;SDS011;61877;48.246;9.220;2023-08-06T01:19:29;10.75;;;3.28;;
73599;SDS011;61877;48.246;9.220;2023-08-06T01:21:56;8.57;;;3.10;;
73599;SDS011;61877;48.246;9.220;2023-08-06T01:24:21;7.70;;;3.30;;
73599;SDS011;61877;48.246;9.220;2023-08-06T01:26:48;7.27;;;2.93;;
73599;SDS011;61877;48.246;9.220;2023-08-06T01:29:22;7.40;;;3.03;;
73599;SDS011;61877;48.246;9.220;2023-08-06T01:31:50;7.93;;;2.80;;
73599;SDS011;61877;48.246;9.220;2023-08-06T01:34:19;7.55;;;2.78;;
73599;SDS011;61877;48.246;9.220;2023-08-06T01:36:46;6.70;;;2.70;;
73599;SDS011;61877;48.246;9.220;2023-08-06T01:39:13;7.55;;;3.00;;
73599;SDS011;61877;48.246;9.220;2023-08-06T01:41:38;7.03;;;2.78;;
73599;SDS011;61877;48.246;9.220;2023-08-06T01:44:04;7.17;;;2.90;;
73599;SDS011;61877;48.246;9.220;2023-08-06T01:46:30;8.02;;;2.63;;
73599;SDS011;61877;48.246;9.220;2023-08-06T01:48:55;7.60;;;3.10;;
73599;SDS011;61877;48.246;9.220;2023-08-06T01:51:21;7.27;;;2.80;;
73599;SDS011;61877;48.246;9.220;2023-08-06T01:53:46;6.73;;;2.90;;
73599;SDS011;61877;48.246;9.220;2023-08-06T01:56:13;7.53;;;3.05;;
73599;SDS011;61877;48.246;9.220;2023-08-06T01:58:38;7.00;;;2.87;;
73599;SDS011;61877;48.246;9.220;2023-08-06T02:01:03;7.30;;;3.00;;
73599;SDS011;61877;48.246;9.220;2023-08-06T02:03:29;9.47;;;2.93;;
73599;SDS011;61877;48.246;9.220;2023-08-06T02:05:54;7.97;;;2.90;;
73599;SDS011;61877;48.246;9.220;2023-08-06T02:08:20;8.83;;;3.53;;
73599;SDS011;61877;48.246;9.220;2023-08-06T02:10:45;9.33;;;2.93;;
73599;SDS011;61877;48.246;9.220;2023-08-06T02:13:12;7.00;;;3.00;;
73599;SDS011;61877;48.246;9.220;2023-08-06T02:15:41;7.95;;;3.08;;
73599;SDS011;61877;48.246;9.220;2023-08-06T02:18:07;11.07;;;2.90;;
73599;SDS011;61877;48.246;9.220;2023-08-06T02:20:32;6.57;;;2.53;;
73599;SDS011;61877;48.246;9.220;2023-08-06T02:22:58;7.17;;;3.00;;
73599;SDS011;61877;48.246;9.220;2023-08-06T02:25:23;7.23;;;2.97;;
73599;SDS011;61877;48.246;9.220;2023-08-06T02:27:49;7.10;;;2.70;;
73599;SDS011;61877;48.246;9.220;2023-08-06T02:30:16;7.43;;;3.10;;
73599;SDS011;61877;48.246;9.220;2023-08-06T02:32:41;9.20;;;2.80;;
73599;SDS011;61877;48.246;9.220;2023-08-06T02:35:07;7.32;;;3.00;;
73599;SDS011;61877;48.246;9.220;2023-08-06T02:37:33;7.70;;;2.80;;
73599;SDS011;61877;48.246;9.220;2023-08-06T02:39:58;7.32;;;3.00;;
73599;SDS011;61877;48.246;9.220;2023-08-06T02:42:23;7.03;;;2.80;;
73599;SDS011;61877;48.246;9.220;2023-08-06T02:44:49;7.80;;;3.00;;
73599;SDS011;61877;48.246;9.220;2023-08-06T02:47:15;8.00;;;3.00;;
73599;SDS011;61877;48.246;9.220;2023-08-06T02:49:41;8.70;;;3.33;;
73599;SDS011;61877;48.246;9.220;2023-08-06T02:52:06;9.43;;;2.80;;
73599;SDS011;61877;48.246;9.220;2023-08-06T02:54:32;7.30;;;2.90;;
73599;SDS011;61877;48.246;9.220;2023-08-06T02:56:57;7.27;;;2.67;;
73599;SDS011;61877;48.246;9.220;2023-08-06T02:59:23;7.03;;;2.80;;
73599;SDS011;61877;48.246;9.220;2023-08-06T03:01:48;9.03;;;2.60;;
73599;SDS011;61877;48.246;9.220;2023-08-06T03:04:15;8.23;;;2.83;;
73599;SDS011;61877;48.246;9.220;2023-08-06T03:06:40;7.38;;;2.50;;
73599;SDS011;61877;48.246;9.220;2023-08-06T03:09:06;7.60;;;2.67;;
73599;SDS011;61877;48.246;9.220;2023-08-06T03:11:31;6.90;;;2.50;;
73599;SDS011;61877;48.246;9.220;2023-08-06T03:13:56;6.60;;;2.70;;
73599;SDS011;61877;48.246;9.220;2023-08-06T03:16:22;7.53;;;2.77;;
73599;SDS011;61877;48.246;9.220;2023-08-06T03:18:47;7.73;;;2.90;;
73599;SDS011;61877;48.246;9.220;2023-08-06T03:21:14;8.10;;;3.07;;
73599;SDS011;61877;48.246;9.220;2023-08-06T03:23:39;6.68;;;2.63;;
73599;SDS011;61877;48.246;9.220;2023-08-06T03:26:05;7.17;;;2.97;;
73599;SDS011;61877;48.246;9.220;2023-08-06T03:28:30;6.57;;;2.60;;
73599;SDS011;61877;48.246;9.220;2023-08-06T03:30:59;6.60;;;2.80;;
73599;SDS011;61877;48.246;9.220;2023-08-06T03:33:24;7.43;;;3.00;;
73599;SDS011;61877;48.246;9.220;2023-08-06T03:35:50;7.00;;;2.80;;
73599;SDS011;61877;48.246;9.220;2023-08-06T03:38:17;8.97;;;2.53;;
73599;SDS011;61877;48.246;9.220;2023-08-06T03:40:42;8.50;;;3.00;;
73599;SDS011;61877;48.246;9.220;2023-08-06T03:43:07;6.40;;;2.50;;
73599;SDS011;61877;48.246;9.220;2023-08-06T03:45:33;7.27;;;2.40;;
73599;SDS011;61877;48.246;9.220;2023-08-06T03:47:58;7.63;;;2.57;;
73599;SDS011;61877;48.246;9.220;2023-08-06T03:50:23;7.90;;;2.53;;
73599;SDS011;61877;48.246;9.220;2023-08-06T03:52:49;8.03;;;2.47;;
73599;SDS011;61877;48.246;9.220;2023-08-06T03:55:15;6.70;;;2.50;;
73599;SDS011;61877;48.246;9.220;2023-08-06T03:57:41;7.65;;;2.30;;
73599;SDS011;61877;48.246;9.220;2023-08-06T04:00:07;6.50;;;2.33;;
73599;SDS011;61877;48.246;9.220;2023-08-06T04:02:33;6.88;;;2.38;;
73599;SDS011;61877;48.246;9.220;2023-08-06T04:04:58;6.20;;;2.20;;
73599;SDS011;61877;48.246;9.220;2023-08-06T04:07:23;5.90;;;2.20;;
73599;SDS011;61877;48.246;9.220;2023-08-06T04:09:52;7.60;;;2.30;;
73599;SDS011;61877;48.246;9.220;2023-08-06T04:12:20;7.25;;;2.53;;
73599;SDS011;61877;48.246;9.220;2023-08-06T04:14:45;7.30;;;2.53;;
73599;SDS011;61877;48.246;9.220;2023-08-06T04:17:11;6.60;;;2.50;;
73599;SDS011;61877;48.246;9.220;2023-08-06T04:19:39;6.77;;;2.30;;
73599;SDS011;61877;48.246;9.220;2023-08-06T04:22:05;7.13;;;2.30;;
73599;SDS011;61877;48.246;9.220;2023-08-06T04:24:30;6.90;;;2.47;;
73599;SDS011;61877;48.246;9.220;2023-08-06T04:26:55;8.27;;;2.50;;
73599;SDS011;61877;48.246;9.220;2023-08-06T04:29:22;6.37;;;2.30;;
73599;SDS011;61877;48.246;9.220;2023-08-06T04:31:48;9.32;;;2.72;;
73599;SDS011;61877;48.246;9.220;2023-08-06T04:34:13;6.30;;;2.10;;
73599;SDS011;61877;48.246;9.220;2023-08-06T04:36:38;6.63;;;2.50;;
73599;SDS011;61877;48.246;9.220;2023-08-06T04:39:04;6.17;;;2.10;;
73599;SDS011;61877;48.246;9.220;2023-08-06T04:41:29;8.53;;;2.60;;
73599;SDS011;61877;48.246;9.220;2023-08-06T04:43:56;7.10;;;2.70;;
73599;SDS011;61877;48.246;9.220;2023-08-06T04:46:23;6.68;;;2.30;;
73599;SDS011;61877;48.246;9.220;2023-08-06T04:48:48;6.30;;;2.20;;
73599;SDS011;61877;48.246;9.220;2023-08-06T04:51:14;6.90;;;2.10;;
73599;SDS011;61877;48.246;9.220;2023-08-06T04:53:39;6.60;;;2.40;;
73599;SDS011;61877;48.246;9.220;2023-08-06T04:56:05;7.53;;;2.50;;
73599;SDS011;61877;48.246;9.220;2023-08-06T04:58:30;6.67;;;2.30;;
73599;SDS011;61877;48.246;9.220;2023-08-06T05:00:56;6.80;;;2.23;;
73599;SDS011;61877;48.246;9.220;2023-08-06T05:03:22;8.20;;;2.97;;
73599;SDS011;61877;48.246;9.220;2023-08-06T05:05:48;7.35;;;2.25;;
73599;SDS011;61877;48.246;9.220;2023-08-06T05:08:14;6.57;;;2.30;;
73599;SDS011;61877;48.246;9.220;2023-08-06T05:10:41;6.50;;;2.22;;
73599;SDS011;61877;48.246;9.220;2023-08-06T05:13:07;5.55;;;1.60;;
73599;SDS011;61877;48.246;9.220;2023-08-06T05:15:32;5.13;;;1.40;;
73599;SDS011;61877;48.246;9.220;2023-08-06T05:17:58;5.37;;;1.50;;
73599;SDS011;61877;48.246;9.220;2023-08-06T05:20:25;5.25;;;1.40;;
73599;SDS011;61877;48.246;9.220;2023-08-06T05:22:50;5.20;;;1.30;;
73599;SDS011;61877;48.246;9.220;2023-08-06T05:25:16;5.72;;;1.38;;
73599;SDS011;61877;48.246;9.220;2023-08-06T05:27:41;5.20;;;1.50;;
73599;SDS011;61877;48.246;9.220;2023-08-06T05:30:07;5.07;;;1.23;;
73599;SDS011;61877;48.246;9.220;2023-08-06T05:32:33;6.10;;;1.38;;
73599;SDS011;61877;48.246;9.220;2023-08-06T05:34:58;5.00;;;1.30;;
73599;SDS011;61877;48.246;9.220;2023-08-06T05:37:25;5.87;;;1.30;;
73599;SDS011;61877;48.246;9.220;2023-08-06T05:39:51;6.00;;;1.50;;
73599;SDS011;61877;48.246;9.220;2023-08-06T05:42:16;5.23;;;1.33;;
73599;SDS011;61877;48.246;9.220;2023-08-06T05:44:41;5.03;;;1.20;;
73599;SDS011;61877;48.246;9.220;2023-08-06T05:47:07;4.70;;;1.20;;
73599;SDS011;61877;48.246;9.220;2023-08-06T05:49:35;5.60;;;1.20;;
73599;SDS011;61877;48.246;9.220;2023-08-06T05:52:01;5.10;;;1.20;;
73599;SDS011;61877;48.246;9.220;2023-08-06T05:54:28;5.90;;;1.15;;
73599;SDS011;61877;48.246;9.220;2023-08-06T05:56:53;4.40;;;1.10;;
73599;SDS011;61877;48.246;9.220;2023-08-06T05:59:18;5.20;;;1.05;;
73599;SDS011;61877;48.246;9.220;2023-08-06T06:01:44;6.17;;;1.30;;
73599;SDS011;61877;48.246;9.220;2023-08-06T06:04:09;4.63;;;1.20;;
73599;SDS011;61877;48.246;9.220;2023-08-06T06:06:35;4.55;;;1.25;;
73599;SDS011;61877;48.246;9.220;2023-08-06T06:09:00;4.43;;;1.10;;
73599;SDS011;61877;48.246;9.220;2023-08-06T06:11:27;5.53;;;1.10;;
73599;SDS011;61877;48.246;9.220;2023-08-06T06:13:55;4.10;;;0.90;;
73599;SDS011;61877;48.246;9.220;2023-08-06T06:16:20;4.97;;;1.00;;
73599;SDS011;61877;48.246;9.220;2023-08-06T06:18:45;4.07;;;0.97;;
73599;SDS011;61877;48.246;9.220;2023-08-06T06:21:11;4.30;;;1.00;;
73599;SDS011;61877;48.246;9.220;2023-08-06T06:23:36;4.00;;;0.80;;
73599;SDS011;61877;48.246;9.220;2023-08-06T06:26:02;4.80;;;0.90;;
73599;SDS011;61877;48.246;9.220;2023-08-06T06:28:28;4.60;;;1.00;;
73599;SDS011;61877;48.246;9.220;2023-08-06T06:30:54;3.97;;;0.77;;
73599;SDS011;61877;48.246;9.220;2023-08-06T06:33:25;4.27;;;0.80;;
73599;SDS011;61877;48.246;9.220;2023-08-06T06:35:50;3.70;;;0.80;;
73599;SDS011;61877;48.246;9.220;2023-08-06T06:38:15;4.00;;;0.90;;
73599;SDS011;61877;48.246;9.220;2023-08-06T06:40:41;3.77;;;0.73;;
73599;SDS011;61877;48.246;9.220;2023-08-06T06:43:06;4.40;;;0.80;;
73599;SDS011;61877;48.246;9.220;2023-08-06T06:45:33;4.85;;;1.23;;
73599;SDS011;61877;48.246;9.220;2023-08-06T06:47:58;6.03;;;1.70;;
73599;SDS011;61877;48.246;9.220;2023-08-06T06:50:24;3.97;;;1.00;;
73599;SDS011;61877;48.246;9.220;2023-08-06T06:52:49;3.80;;;0.80;;
73599;SDS011;61877;48.246;9.220;2023-08-06T06:55:15;3.77;;;0.90;;
73599;SDS011;61877;48.246;9.220;2023-08-06T06:57:40;3.67;;;0.70;;
73599;SDS011;61877;48.246;9.220;2023-08-06T07:00:06;4.13;;;0.87;;
73599;SDS011;61877;48.246;9.220;2023-08-06T07:02:33;3.28;;;0.80;;
73599;SDS011;61877;48.246;9.220;2023-08-06T07:04:58;4.25;;;1.00;;
73599;SDS011;61877;48.246;9.220;2023-08-06T07:07:24;4.23;;;0.80;;
73599;SDS011;61877;48.246;9.220;2023-08-06T07:09:49;3.50;;;0.80;;
73599;SDS011;61877;48.246;9.220;2023-08-06T07:12:15;4.43;;;1.00;;
73599;SDS011;61877;48.246;9.220;2023-08-06T07:14:40;4.10;;;0.73;;
73599;SDS011;61877;48.246;9.220;2023-08-06T07:17:05;3.07;;;0.77;;
73599;SDS011;61877;48.246;9.220;2023-08-06T07:19:32;3.53;;;0.77;;
73599;SDS011;61877;48.246;9.220;2023-08-06T07:21:58;4.13;;;0.80;;
73599;SDS011;61877;48.246;9.220;2023-08-06T07:24:23;3.47;;;0.80;;
73599;SDS011;61877;48.246;9.220;2023-08-06T07:26:48;2.90;;;0.70;;
73599;SDS011;61877;48.246;9.220;2023-08-06T07:29:14;3.20;;;0.80;;
73599;SDS011;61877;48.246;9.220;2023-08-06T07:31:39;3.07;;;0.70;;
73599;SDS011;61877;48.246;9.220;2023-08-06T07:34:05;2.87;;;0.70;;
73599;SDS011;61877;48.246;9.220;2023-08-06T07:36:32;3.50;;;0.70;;
73599;SDS011;61877;48.246;9.220;2023-08-06T07:38:57;3.25;;;0.80;;
73599;SDS011;61877;48.246;9.220;2023-08-06T07:41:23;2.97;;;0.70;;
73599;SDS011;61877;48.246;9.220;2023-08-06T07:43:48;4.00;;;0.98;;
73599;SDS011;61877;48.246;9.220;2023-08-06T07:46:15;3.37;;;0.73;;
73599;SDS011;61877;48.246;9.220;2023-08-06T07:48:41;3.42;;;0.80;;
73599;SDS011;61877;48.246;9.220;2023-08-06T07:51:06;3.37;;;0.80;;
73599;SDS011;61877;48.246;9.220;2023-08-06T07:53:33;4.43;;;1.00;;
73599;SDS011;61877;48.246;9.220;2023-08-06T07:55:58;3.20;;;0.80;;
73599;SDS011;61877;48.246;9.220;2023-08-06T07:58:24;3.57;;;0.70;;
73599;SDS011;61877;48.246;9.220;2023-08-06T08:00:50;3.75;;;0.82;;
73599;SDS011;61877;48.246;9.220;2023-08-06T08:03:16;3.23;;;0.80;;
73599;SDS011;61877;48.246;9.220;2023-08-06T08:05:41;4.20;;;0.90;;
73599;SDS011;61877;48.246;9.220;2023-08-06T08:08:07;3.95;;;1.00;;
73599;SDS011;61877;48.246;9.220;2023-08-06T08:10:37;3.00;;;0.70;;
73599;SDS011;61877;48.246;9.220;2023-08-06T08:13:03;3.25;;;0.68;;
73599;SDS011;61877;48.246;9.220;2023-08-06T08:15:29;10.35;;;6.80;;
73599;SDS011;61877;48.246;9.220;2023-08-06T08:17:55;4.70;;;1.30;;
73599;SDS011;61877;48.246;9.220;2023-08-06T08:20:20;3.27;;;0.73;;
73599;SDS011;61877;48.246;9.220;2023-08-06T08:22:46;4.20;;;0.80;;
73599;SDS011;61877;48.246;9.220;2023-08-06T08:25:11;4.18;;;0.90;;
73599;SDS011;61877;48.246;9.220;2023-08-06T08:27:40;3.83;;;0.90;;
73599;SDS011;61877;48.246;9.220;2023-08-06T08:30:08;3.10;;;0.70;;
73599;SDS011;61877;48.246;9.220;2023-08-06T08:32:34;4.20;;;0.90;;
73599;SDS011;61877;48.246;9.220;2023-08-06T08:35:01;5.88;;;1.38;;
73599;SDS011;61877;48.246;9.220;2023-08-06T08:37:27;4.90;;;1.08;;
73599;SDS011;61877;48.246;9.220;2023-08-06T08:39:52;2.93;;;0.70;;
73599;SDS011;61877;48.246;9.220;2023-08-06T08:42:17;3.40;;;0.70;;
73599;SDS011;61877;48.246;9.220;2023-08-06T08:44:45;3.75;;;0.80;;
73599;SDS011;61877;48.246;9.220;2023-08-06T08:47:11;2.90;;;0.70;;
73599;SDS011;61877;48.246;9.220;2023-08-06T08:49:37;2.73;;;0.60;;
73599;SDS011;61877;48.246;9.220;2023-08-06T08:52:04;2.90;;;0.70;;
73599;SDS011;61877;48.246;9.220;2023-08-06T08:54:30;2.85;;;0.70;;
73599;SDS011;61877;48.246;9.220;2023-08-06T08:56:57;2.85;;;0.65;;
73599;SDS011;61877;48.246;9.220;2023-08-06T08:59:22;2.60;;;0.60;;
73599;SDS011;61877;48.246;9.220;2023-08-06T09:01:53;2.93;;;0.60;;
73599;SDS011;61877;48.246;9.220;2023-08-06T09:04:20;3.60;;;0.65;;
73599;SDS011;61877;48.246;9.220;2023-08-06T09:06:46;3.72;;;0.70;;
73599;SDS011;61877;48.246;9.220;2023-08-06T09:09:15;2.90;;;0.73;;
73599;SDS011;61877;48.246;9.220;2023-08-06T09:11:46;3.33;;;0.77;;
73599;SDS011;61877;48.246;9.220;2023-08-06T09:14:13;2.67;;;0.70;;
73599;SDS011;61877;48.246;9.220;2023-08-06T09:16:38;2.58;;;0.70;;
73599;SDS011;61877;48.246;9.220;2023-08-06T09:19:09;2.57;;;0.57;;
73599;SDS011;61877;48.246;9.220;2023-08-06T09:21:36;3.38;;;0.80;;
73599;SDS011;61877;48.246;9.220;2023-08-06T09:24:03;3.47;;;0.65;;
73599;SDS011;61877;48.246;9.220;2023-08-06T09:26:33;2.72;;;0.60;;
73599;SDS011;61877;48.246;9.220;2023-08-06T09:28:59;3.15;;;0.70;;
73599;SDS011;61877;48.246;9.220;2023-08-06T09:31:24;3.20;;;0.70;;
73599;SDS011;61877;48.246;9.220;2023-08-06T09:33:57;3.53;;;0.90;;
73599;SDS011;61877;48.246;9.220;2023-08-06T09:36:26;3.50;;;0.70;;
73599;SDS011;61877;48.246;9.220;2023-08-06T09:38:52;2.88;;;0.70;;
73599;SDS011;61877;48.246;9.220;2023-08-06T09:41:25;3.63;;;0.80;;
73599;SDS011;61877;48.246;9.220;2023-08-06T09:43:51;3.13;;;0.80;;
73599;SDS011;61877;48.246;9.220;2023-08-06T09:46:17;3.10;;;0.70;;
73599;SDS011;61877;48.246;9.220;2023-08-06T09:48:44;2.50;;;0.70;;
73599;SDS011;61877;48.246;9.220;2023-08-06T09:51:10;5.88;;;2.25;;
73599;SDS011;61877;48.246;9.220;2023-08-06T09:53:39;4.30;;;1.02;;
73599;SDS011;61877;48.246;9.220;2023-08-06T09:56:06;5.53;;;0.87;;
73599;SDS011;61877;48.246;9.220;2023-08-06T09:58:31;4.07;;;1.05;;
73599;SDS011;61877;48.246;9.220;2023-08-06T10:00:57;3.03;;;0.60;;
73599;SDS011;61877;48.246;9.220;2023-08-06T10:03:23;3.75;;;0.80;;
73599;SDS011;61877;48.246;9.220;2023-08-06T10:05:50;3.90;;;0.80;;
73599;SDS011;61877;48.246;9.220;2023-08-06T10:08:16;4.35;;;1.00;;
73599;SDS011;61877;48.246;9.220;2023-08-06T10:10:43;4.03;;;0.90;;
73599;SDS011;61877;48.246;9.220;2023-08-06T10:13:09;4.50;;;1.10;;
73599;SDS011;61877;48.246;9.220;2023-08-06T10:15:35;4.22;;;1.08;;
73599;SDS011;61877;48.246;9.220;2023-08-06T10:18:02;4.35;;;1.00;;
73599;SDS011;61877;48.246;9.220;2023-08-06T10:20:32;4.57;;;0.90;;
73599;SDS011;61877;48.246;9.220;2023-08-06T10:23:02;4.30;;;0.90;;
73599;SDS011;61877;48.246;9.220;2023-08-06T10:25:32;3.78;;;0.90;;
73599;SDS011;61877;48.246;9.220;2023-08-06T10:28:00;3.97;;;0.82;;
73599;SDS011;61877;48.246;9.220;2023-08-06T10:30:26;3.65;;;0.80;;
73599;SDS011;61877;48.246;9.220;2023-08-06T10:32:53;6.27;;;1.23;;
73599;SDS011;61877;48.246;9.220;2023-08-06T10:35:29;5.40;;;1.15;;
73599;SDS011;61877;48.246;9.220;2023-08-06T10:37:57;3.90;;;0.93;;
73599;SDS011;61877;48.246;9.220;2023-08-06T10:40:24;4.40;;;1.00;;
73599;SDS011;61877;48.246;9.220;2023-08-06T10:42:49;4.67;;;1.20;;
73599;SDS011;61877;48.246;9.220;2023-08-06T10:45:17;4.50;;;1.20;;
73599;SDS011;61877;48.246;9.220;2023-08-06T10:47:43;6.80;;;1.20;;
73599;SDS011;61877;48.246;9.220;2023-08-06T10:50:11;4.27;;;1.00;;
73599;SDS011;61877;48.246;9.220;2023-08-06T10:52:37;7.20;;;2.83;;
73599;SDS011;61877;48.246;9.220;2023-08-06T10:55:03;10.57;;;1.23;;
73599;SDS011;61877;48.246;9.220;2023-08-06T10:57:30;4.30;;;1.00;;
73599;SDS011;61877;48.246;9.220;2023-08-06T10:59:56;4.10;;;1.00;;
73599;SDS011;61877;48.246;9.220;2023-08-06T11:02:23;3.90;;;0.80;;
73599;SDS011;61877;48.246;9.220;2023-08-06T11:04:48;3.90;;;0.90;;
73599;SDS011;61877;48.246;9.220;2023-08-06T11:07:14;3.40;;;0.80;;
73599;SDS011;61877;48.246;9.220;2023-08-06T11:09:39;4.00;;;1.10;;
73599;SDS011;61877;48.246;9.220;2023-08-06T11:12:07;3.83;;;0.90;;
73599;SDS011;61877;48.246;9.220;2023-08-06T11:14:35;4.00;;;0.90;;
73599;SDS011;61877;48.246;9.220;2023-08-06T11:17:00;4.43;;;1.17;;
73599;SDS011;61877;48.246;9.220;2023-08-06T11:19:27;4.07;;;0.97;;
73599;SDS011;61877;48.246;9.220;2023-08-06T11:21:52;4.13;;;1.05;;
73599;SDS011;61877;48.246;9.220;2023-08-06T11:24:19;4.30;;;1.00;;
73599;SDS011;61877;48.246;9.220;2023-08-06T11:26:45;3.53;;;0.80;;
73599;SDS011;61877;48.246;9.220;2023-08-06T11:29:10;4.70;;;1.10;;
73599;SDS011;61877;48.246;9.220;2023-08-06T11:31:35;4.30;;;1.20;;
73599;SDS011;61877;48.246;9.220;2023-08-06T11:34:01;4.18;;;0.90;;
73599;SDS011;61877;48.246;9.220;2023-08-06T11:36:31;3.80;;;0.80;;
73599;SDS011;61877;48.246;9.220;2023-08-06T11:38:57;3.53;;;0.80;;
73599;SDS011;61877;48.246;9.220;2023-08-06T11:41:23;3.58;;;0.80;;
73599;SDS011;61877;48.246;9.220;2023-08-06T11:43:48;4.10;;;1.07;;
73599;SDS011;61877;48.246;9.220;2023-08-06T11:46:14;4.43;;;0.90;;
73599;SDS011;61877;48.246;9.220;2023-08-06T11:48:50;3.20;;;0.80;;
73599;SDS011;61877;48.246;9.220;2023-08-06T11:51:16;3.67;;;0.60;;
73599;SDS011;61877;48.246;9.220;2023-08-06T11:53:43;3.23;;;0.70;;
73599;SDS011;61877;48.246;9.220;2023-08-06T11:56:13;3.65;;;0.80;;
73599;SDS011;61877;48.246;9.220;2023-08-06T11:58:40;4.20;;;0.90;;
73599;SDS011;61877;48.246;9.220;2023-08-06T12:01:06;4.30;;;0.90;;
73599;SDS011;61877;48.246;9.220;2023-08-06T12:03:31;5.37;;;1.03;;
73599;SDS011;61877;48.246;9.220;2023-08-06T12:05:56;7.17;;;2.43;;
73599;SDS011;61877;48.246;9.220;2023-08-06T12:08:25;4.50;;;1.20;;
73599;SDS011;61877;48.246;9.220;2023-08-06T12:10:53;4.20;;;0.90;;
73599;SDS011;61877;48.246;9.220;2023-08-06T12:13:18;3.92;;;0.90;;
73599;SDS011;61877;48.246;9.220;2023-08-06T12:15:44;3.95;;;0.95;;
73599;SDS011;61877;48.246;9.220;2023-08-06T12:18:10;4.37;;;1.10;;
73599;SDS011;61877;48.246;9.220;2023-08-06T12:20:35;4.60;;;1.13;;
73599;SDS011;61877;48.246;9.220;2023-08-06T12:23:01;4.32;;;1.15;;
73599;SDS011;61877;48.246;9.220;2023-08-06T12:25:26;4.80;;;1.00;;
73599;SDS011;61877;48.246;9.220;2023-08-06T12:27:53;4.60;;;1.20;;
73599;SDS011;61877;48.246;9.220;2023-08-06T12:30:19;5.05;;;1.27;;
73599;SDS011;61877;48.246;9.220;2023-08-06T12:32:44;5.00;;;1.30;;
73599;SDS011;61877;48.246;9.220;2023-08-06T12:35:10;5.27;;;1.20;;
73599;SDS011;61877;48.246;9.220;2023-08-06T12:37:35;6.23;;;2.00;;
73599;SDS011;61877;48.246;9.220;2023-08-06T12:40:01;5.30;;;1.60;;
73599;SDS011;61877;48.246;9.220;2023-08-06T12:42:26;4.67;;;1.20;;
73599;SDS011;61877;48.246;9.220;2023-08-06T12:44:53;4.70;;;1.27;;
73599;SDS011;61877;48.246;9.220;2023-08-06T12:47:18;6.47;;;1.50;;
73599;SDS011;61877;48.246;9.220;2023-08-06T12:49:44;4.63;;;1.37;;
73599;SDS011;61877;48.246;9.220;2023-08-06T12:52:09;5.30;;;1.50;;
73599;SDS011;61877;48.246;9.220;2023-08-06T12:54:35;4.80;;;1.30;;
73599;SDS011;61877;48.246;9.220;2023-08-06T12:57:00;4.57;;;1.10;;
73599;SDS011;61877;48.246;9.220;2023-08-06T12:59:26;4.40;;;1.13;;
73599;SDS011;61877;48.246;9.220;2023-08-06T13:01:53;5.10;;;1.10;;
73599;SDS011;61877;48.246;9.220;2023-08-06T13:04:18;4.60;;;1.10;;
73599;SDS011;61877;48.246;9.220;2023-08-06T13:06:43;5.63;;;1.20;;
73599;SDS011;61877;48.246;9.220;2023-08-06T13:09:09;4.37;;;1.00;;
73599;SDS011;61877;48.246;9.220;2023-08-06T13:11:35;4.30;;;1.00;;
73599;SDS011;61877;48.246;9.220;2023-08-06T13:14:03;4.40;;;1.00;;
73599;SDS011;61877;48.246;9.220;2023-08-06T13:16:30;4.50;;;1.00;;
73599;SDS011;61877;48.246;9.220;2023-08-06T13:18:56;4.27;;;1.10;;
73599;SDS011;61877;48.246;9.220;2023-08-06T13:21:22;4.60;;;1.20;;
73599;SDS011;61877;48.246;9.220;2023-08-06T13:23:47;5.20;;;1.30;;
73599;SDS011;61877;48.246;9.220;2023-08-06T13:26:13;4.30;;;0.90;;
73599;SDS011;61877;48.246;9.220;2023-08-06T13:28:38;4.20;;;0.90;;
73599;SDS011;61877;48.246;9.220;2023-08-06T13:31:04;5.27;;;1.80;;
73599;SDS011;61877;48.246;9.220;2023-08-06T13:33:29;5.10;;;1.53;;
73599;SDS011;61877;48.246;9.220;2023-08-06T13:35:56;5.10;;;1.38;;
73599;SDS011;61877;48.246;9.220;2023-08-06T13:38:21;4.00;;;0.90;;
73599;SDS011;61877;48.246;9.220;2023-08-06T13:40:47;5.00;;;0.80;;
73599;SDS011;61877;48.246;9.220;2023-08-06T13:43:13;4.40;;;0.80;;
73599;SDS011;61877;48.246;9.220;2023-08-06T13:45:38;4.20;;;0.90;;
73599;SDS011;61877;48.246;9.220;2023-08-06T13:48:04;5.80;;;1.20;;
73599;SDS011;61877;48.246;9.220;2023-08-06T13:50:29;4.40;;;1.00;;
73599;SDS011;61877;48.246;9.220;2023-08-06T13:52:56;4.30;;;0.98;;
73599;SDS011;61877;48.246;9.220;2023-08-06T13:55:21;4.43;;;1.20;;
73599;SDS011;61877;48.246;9.220;2023-08-06T13:57:49;4.03;;;1.02;;
73599;SDS011;61877;48.246;9.220;2023-08-06T14:00:15;3.97;;;0.80;;
73599;SDS011;61877;48.246;9.220;2023-08-06T14:02:40;4.70;;;1.20;;
73599;SDS011;61877;48.246;9.220;2023-08-06T14:05:06;4.90;;;1.20;;
73599;SDS011;61877;48.246;9.220;2023-08-06T14:07:32;3.85;;;0.85;;
73599;SDS011;61877;48.246;9.220;2023-08-06T14:09:59;4.90;;;1.10;;
73599;SDS011;61877;48.246;9.220;2023-08-06T14:12:24;4.60;;;1.10;;
73599;SDS011;61877;48.246;9.220;2023-08-06T14:14:49;4.50;;;0.90;;
73599;SDS011;61877;48.246;9.220;2023-08-06T14:17:15;4.40;;;0.90;;
73599;SDS011;61877;48.246;9.220;2023-08-06T14:19:40;4.03;;;1.00;;
73599;SDS011;61877;48.246;9.220;2023-08-06T14:22:06;4.97;;;1.60;;
73599;SDS011;61877;48.246;9.220;2023-08-06T14:24:31;4.33;;;0.90;;
73599;SDS011;61877;48.246;9.220;2023-08-06T14:27:02;5.20;;;1.00;;
73599;SDS011;61877;48.246;9.220;2023-08-06T14:32:54;4.30;;;0.90;;
73599;SDS011;61877;48.246;9.220;2023-08-06T14:35:22;4.60;;;1.08;;
73599;SDS011;61877;48.246;9.220;2023-08-06T14:37:50;4.33;;;1.00;;
73599;SDS011;61877;48.246;9.220;2023-08-06T14:40:19;4.00;;;0.90;;
73599;SDS011;61877;48.246;9.220;2023-08-06T14:42:52;4.45;;;1.10;;
73599;SDS011;61877;48.246;9.220;2023-08-06T14:48:09;4.80;;;1.30;;